createdAt,value
2022-09-28T00:00:15.501Z,86.08
2022-09-28T00:05:15.556Z,86.07
2022-09-28T00:10:15.835Z,86.13
2022-09-28T00:15:15.597Z,86.14
2022-09-28T00:20:16.853Z,86.12
2022-09-28T00:25:16.759Z,86.20
2022-09-28T00:30:16.824Z,86.16
2022-09-28T00:35:16.614Z,86.17
2022-09-28T00:40:16.568Z,86.10
2022-09-28T00:45:16.538Z,86.09
2022-09-28T00:50:16.705Z,86.12
2022-09-28T00:55:16.939Z,86.14
2022-09-28T01:00:17.011Z,86.14
2022-09-28T01:05:16.663Z,86.12
2022-09-28T01:10:17.116Z,86.12
2022-09-28T01:15:17.465Z,86.17
2022-09-28T01:20:17.670Z,86.14
2022-09-28T01:25:17.726Z,86.12
2022-09-28T01:30:17.730Z,86.12
2022-09-28T01:35:17.574Z,86.15
2022-09-28T01:40:19.751Z,86.19
2022-09-28T01:45:19.729Z,86.24
2022-09-28T01:50:19.671Z,86.22
2022-09-28T01:55:19.983Z,86.23
2022-09-28T02:00:21.836Z,86.17
2022-09-28T02:05:21.609Z,86.19
2022-09-28T02:10:21.684Z,86.19
2022-09-28T02:15:21.719Z,86.27
2022-09-28T02:20:21.638Z,86.20
2022-09-28T02:25:21.676Z,86.25
2022-09-28T02:30:21.691Z,86.24
2022-09-28T02:35:21.952Z,86.22
2022-09-28T02:40:22.617Z,86.24
2022-09-28T02:45:23.202Z,86.21
2022-09-28T02:50:23.699Z,86.26
2022-09-28T02:55:23.720Z,86.21
2022-09-28T03:00:23.649Z,86.22
2022-09-28T03:05:23.784Z,86.31
2022-09-28T03:10:23.724Z,86.31
2022-09-28T03:15:23.906Z,86.32
2022-09-28T03:20:23.703Z,86.29
2022-09-28T03:25:23.797Z,86.29
2022-09-28T03:30:24.054Z,86.32
2022-09-28T03:35:23.688Z,86.34
2022-09-28T03:40:23.896Z,86.39
2022-09-28T03:45:24.794Z,86.40
2022-09-28T03:50:24.716Z,86.32
2022-09-28T03:55:24.742Z,86.36
2022-09-28T04:00:25.373Z,86.32
2022-09-28T04:05:25.734Z,86.34
2022-09-28T04:10:27.319Z,86.35
2022-09-28T04:15:27.654Z,86.37
2022-09-28T04:20:35.751Z,86.42
2022-09-28T04:25:35.729Z,86.40
2022-09-28T04:30:35.924Z,86.39
2022-09-28T04:35:36.539Z,86.37
2022-09-28T04:40:39.898Z,86.34
2022-09-28T04:45:41.663Z,86.36
2022-09-28T04:50:52.769Z,86.28
2022-09-28T04:55:52.819Z,86.29
2022-09-28T05:00:54.959Z,86.36
2022-09-28T05:06:02.771Z,86.38
2022-09-28T05:11:02.772Z,86.44
2022-09-28T05:16:05.563Z,86.42
2022-09-28T05:21:05.270Z,86.42
2022-09-28T05:26:04.921Z,86.42
2022-09-28T05:31:15.868Z,86.43
2022-09-28T05:36:16.649Z,86.42
2022-09-28T05:41:16.703Z,86.42
2022-09-28T05:46:16.953Z,86.44
2022-09-28T05:51:17.105Z,86.40
2022-09-28T05:56:18.489Z,86.33
2022-09-28T06:01:19.341Z,86.29
2022-09-28T06:06:21.149Z,86.31
2022-09-28T06:11:21.216Z,86.27
2022-09-28T06:16:20.844Z,86.09
2022-09-28T06:21:21.431Z,86.00
2022-09-28T06:26:22.633Z,85.97
2022-09-28T06:31:24.745Z,85.87
2022-09-28T06:36:24.980Z,85.53
2022-09-28T06:41:24.821Z,85.43
2022-09-28T06:46:27.101Z,85.39
2022-09-28T06:51:31.662Z,85.35
2022-09-28T06:56:33.089Z,85.06
2022-09-28T07:01:41.714Z,85.14
2022-09-28T07:07:00.327Z,85.25
2022-09-28T07:12:07.792Z,85.00
2022-09-28T07:17:13.542Z,84.62
2022-09-28T07:22:16.137Z,84.42
2022-09-28T07:27:25.492Z,84.13
2022-09-28T07:32:34.857Z,83.88
2022-09-28T07:37:34.991Z,83.57
2022-09-28T07:42:35.759Z,83.40
2022-09-28T07:47:46.802Z,83.64
2022-09-28T07:52:51.615Z,83.56
2022-09-28T07:57:53.652Z,83.51
2022-09-28T08:02:57.987Z,83.26
2022-09-28T08:08:00.259Z,82.17
2022-09-28T08:13:20.395Z,80.52
2022-09-28T08:18:20.818Z,80.61
2022-09-28T08:23:21.028Z,80.77
2022-09-28T08:28:23.360Z,80.90
2022-09-28T08:33:24.811Z,81.07
2022-09-28T08:38:38.960Z,80.37
2022-09-28T08:43:41.052Z,80.04
2022-09-28T08:49:13.032Z,80.61
2022-09-28T08:53:55.798Z,80.72
2022-09-28T08:58:55.819Z,80.79
2022-09-28T09:04:04.828Z,80.44
2022-09-28T09:09:05.167Z,80.82
2022-09-28T09:14:05.157Z,80.42
2022-09-28T09:19:09.714Z,79.54
2022-09-28T09:24:09.907Z,78.39
2022-09-28T09:29:12.519Z,76.84
2022-09-28T09:34:17.830Z,78.36
2022-09-28T09:39:36.734Z,79.24
2022-09-28T09:44:40.252Z,78.86
2022-09-28T09:49:39.989Z,78.62
2022-09-28T09:54:41.759Z,77.89
2022-09-28T09:59:43.753Z,76.08
2022-09-28T10:04:46.006Z,75.72
2022-09-28T10:09:56.933Z,76.44
2022-09-28T10:14:58.828Z,76.87
2022-09-28T10:20:00.787Z,76.70
2022-09-28T10:25:01.101Z,76.73
2022-09-28T10:30:01.354Z,76.50
2022-09-28T10:35:02.126Z,76.96
2022-09-28T10:40:03.865Z,77.06
2022-09-28T10:45:11.463Z,76.90
2022-09-28T10:50:11.116Z,76.07
2022-09-28T10:55:10.908Z,74.95
2022-09-28T11:00:13.287Z,74.03
2022-09-28T11:05:14.798Z,74.02
2022-09-28T11:10:15.162Z,73.79
2022-09-28T11:15:14.994Z,73.61
2022-09-28T11:20:15.129Z,73.97
2022-09-28T11:25:15.098Z,74.28
2022-09-28T11:30:16.998Z,74.36
2022-09-28T11:35:17.059Z,72.44
2022-09-28T11:40:17.210Z,71.12
2022-09-28T11:45:17.020Z,71.82
2022-09-28T11:50:23.557Z,71.40
2022-09-28T11:55:20.143Z,71.88
2022-09-28T12:00:21.944Z,71.67
2022-09-28T12:05:23.894Z,71.64
2022-09-28T12:10:24.075Z,70.39
2022-09-28T12:15:24.026Z,70.04
2022-09-28T12:20:24.495Z,70.78
2022-09-28T12:25:24.016Z,71.78
2022-09-28T12:30:24.795Z,72.36
2022-09-28T12:35:25.072Z,73.14
2022-09-28T12:40:25.941Z,73.51
2022-09-28T12:45:27.227Z,73.09
2022-09-28T12:50:38.512Z,73.53
2022-09-28T12:55:29.074Z,73.38
2022-09-28T13:00:29.059Z,72.47
2022-09-28T13:05:29.092Z,72.34
2022-09-28T13:10:31.353Z,72.82
2022-09-28T13:15:31.648Z,73.18
2022-09-28T13:20:32.058Z,73.22
2022-09-28T13:25:32.156Z,72.89
2022-09-28T13:30:32.074Z,73.17
2022-09-28T13:35:32.866Z,73.28
2022-09-28T13:40:33.890Z,73.13
2022-09-28T13:45:34.072Z,73.29
2022-09-28T13:50:34.271Z,72.72
2022-09-28T13:55:34.059Z,72.31
2022-09-28T14:00:34.280Z,71.86
2022-09-28T14:05:34.587Z,70.75
2022-09-28T14:10:34.148Z,68.66
2022-09-28T14:15:34.141Z,68.11
2022-09-28T14:20:34.434Z,68.36
2022-09-28T14:25:35.513Z,68.38
2022-09-28T14:30:35.141Z,68.53
2022-09-28T14:35:35.140Z,69.02
2022-09-28T14:40:53.524Z,69.37
2022-09-28T14:45:54.133Z,67.45
2022-09-28T14:50:56.085Z,66.23
2022-09-28T14:55:56.257Z,65.31
2022-09-28T15:00:56.222Z,65.44
2022-09-28T15:05:56.146Z,65.69
2022-09-28T15:10:56.183Z,66.26
2022-09-28T15:15:56.256Z,66.72
2022-09-28T15:20:56.152Z,66.61
2022-09-28T15:25:56.203Z,66.43
2022-09-28T15:30:56.162Z,66.88
2022-09-28T15:35:56.113Z,67.02
2022-09-28T15:40:56.992Z,67.34
2022-09-28T15:45:59.475Z,67.78
2022-09-28T15:50:59.119Z,68.47
2022-09-28T15:55:59.233Z,68.95
2022-09-28T16:00:59.197Z,69.50
2022-09-28T16:05:59.246Z,69.83
2022-09-28T16:10:59.111Z,70.42
2022-09-28T16:15:59.287Z,71.04
2022-09-28T16:20:59.115Z,71.61
2022-09-28T16:25:59.205Z,72.83
2022-09-28T16:30:59.562Z,74.40
2022-09-28T16:35:59.739Z,75.68
2022-09-28T16:41:01.098Z,76.40
2022-09-28T16:46:01.259Z,76.74
2022-09-28T16:51:01.190Z,76.91
2022-09-28T16:56:01.232Z,77.23
2022-09-28T17:01:01.243Z,77.48
2022-09-28T17:06:01.207Z,77.70
2022-09-28T17:11:14.917Z,77.86
2022-09-28T17:16:03.799Z,78.13
2022-09-28T17:21:04.283Z,78.38
2022-09-28T17:26:04.305Z,78.74
2022-09-28T17:31:04.362Z,79.30
2022-09-28T17:36:04.997Z,79.94
2022-09-28T17:41:05.336Z,80.03
2022-09-28T17:46:07.220Z,80.41
2022-09-28T17:51:07.947Z,80.71
2022-09-28T17:56:09.275Z,81.38
2022-09-28T18:01:09.259Z,81.88
2022-09-28T18:06:10.016Z,82.07
2022-09-28T18:11:10.299Z,81.85
2022-09-28T18:16:10.388Z,81.85
2022-09-28T18:21:10.249Z,81.94
2022-09-28T18:26:10.403Z,81.92
2022-09-28T18:31:10.386Z,82.07
2022-09-28T18:36:10.250Z,82.16
2022-09-28T18:41:10.589Z,82.36
2022-09-28T18:46:10.373Z,82.47
2022-09-28T18:51:10.275Z,82.69
2022-09-28T18:56:10.312Z,82.86
2022-09-28T19:01:28.986Z,82.93
2022-09-28T19:06:12.633Z,82.99
2022-09-28T19:11:12.242Z,83.24
2022-09-28T19:16:12.310Z,83.71
2022-09-28T19:21:12.388Z,83.78
2022-09-28T19:26:12.370Z,83.74
2022-09-28T19:31:12.378Z,83.79
2022-09-28T19:36:12.343Z,84.02
2022-09-28T19:41:12.323Z,84.21
2022-09-28T19:46:12.731Z,84.39
2022-09-28T19:51:12.662Z,84.59
2022-09-28T19:56:12.277Z,84.71
2022-09-28T20:01:12.331Z,84.77
2022-09-28T20:06:17.123Z,84.75
2022-09-28T20:11:14.330Z,84.93
2022-09-28T20:16:14.443Z,84.94
2022-09-28T20:21:18.012Z,84.90
2022-09-28T20:26:16.327Z,84.88
2022-09-28T20:31:16.474Z,84.88
2022-09-28T20:36:16.358Z,84.86
2022-09-28T20:41:17.438Z,84.98
2022-09-28T20:46:18.968Z,85.06
2022-09-28T20:51:19.405Z,85.14
2022-09-28T20:56:19.522Z,85.18
2022-09-28T21:01:19.527Z,85.28
2022-09-28T21:06:19.424Z,85.32
2022-09-28T21:11:19.323Z,85.36
2022-09-28T21:16:19.324Z,85.41
2022-09-28T21:21:19.317Z,85.47
2022-09-28T21:26:21.196Z,85.63
2022-09-28T21:31:26.207Z,85.67
2022-09-28T21:36:23.421Z,85.82
2022-09-28T21:41:23.432Z,86.00
2022-09-28T21:46:24.253Z,86.06
2022-09-28T21:51:24.539Z,86.08
2022-09-28T21:56:24.380Z,86.12
2022-09-28T22:01:25.227Z,86.16
2022-09-28T22:06:27.404Z,86.22
2022-09-28T22:11:27.449Z,86.29
2022-09-28T22:16:27.470Z,86.39
2022-09-28T22:21:27.446Z,86.52
2022-09-28T22:26:27.448Z,86.61
2022-09-28T22:31:27.480Z,86.69
2022-09-28T22:36:27.441Z,86.73
2022-09-28T22:41:27.995Z,86.79
2022-09-28T22:46:28.633Z,86.87
2022-09-28T22:51:28.395Z,86.97
2022-09-28T22:56:28.480Z,87.04
2022-09-28T23:01:28.633Z,87.14
2022-09-28T23:06:30.335Z,87.21
2022-09-28T23:11:30.434Z,87.18
2022-09-28T23:16:30.663Z,87.16
2022-09-28T23:21:30.820Z,87.14
2022-09-28T23:26:30.556Z,87.15
2022-09-28T23:31:30.506Z,87.10
2022-09-28T23:36:30.466Z,86.95
2022-09-28T23:41:30.448Z,86.93
2022-09-28T23:46:30.513Z,86.98
2022-09-28T23:51:31.113Z,86.98
2022-09-28T23:56:34.537Z,87.01
